createdAt,value
2023-05-29T00:00:39.855Z,68.63
2023-05-29T00:03:25.089Z,68.77
2023-05-29T00:05:54.086Z,69.09
2023-05-29T00:08:22.918Z,68.93
2023-05-29T00:10:51.503Z,69.26
2023-05-29T00:13:19.792Z,69.33
2023-05-29T00:15:48.785Z,69.34
2023-05-29T00:18:17.156Z,69.33
2023-05-29T00:20:45.987Z,69.50
2023-05-29T00:23:14.343Z,69.37
2023-05-29T00:25:42.821Z,70.08
2023-05-29T00:28:13.248Z,70.11
2023-05-29T00:30:41.485Z,70.32
2023-05-29T00:33:09.751Z,70.30
2023-05-29T00:35:38.017Z,70.48
2023-05-29T00:38:06.316Z,70.31
2023-05-29T00:40:34.867Z,70.73
2023-05-29T00:43:04.037Z,71.05
2023-05-29T00:45:41.804Z,70.72
2023-05-29T00:48:11.545Z,70.60
2023-05-29T00:50:40.185Z,70.44
2023-05-29T00:53:09.010Z,70.29
2023-05-29T00:55:37.668Z,70.45
2023-05-29T00:58:07.825Z,70.25
2023-05-29T01:00:40.109Z,70.28
2023-05-29T01:03:09.457Z,70.06
2023-05-29T01:05:38.477Z,69.74
2023-05-29T01:08:07.966Z,69.60
2023-05-29T01:10:38.824Z,69.75
2023-05-29T01:13:16.346Z,69.38
2023-05-29T01:15:59.842Z,69.37
2023-05-29T01:18:31.237Z,69.45
2023-05-29T01:21:21.284Z,69.50
2023-05-29T01:24:10.413Z,69.77
2023-05-29T01:27:15.576Z,69.85
2023-05-29T01:29:44.865Z,69.80
2023-05-29T01:32:13.650Z,69.80
2023-05-29T01:34:42.168Z,69.67
2023-05-29T01:37:10.525Z,69.65
2023-05-29T01:39:38.909Z,69.79
2023-05-29T01:42:07.676Z,69.72
2023-05-29T01:44:39.255Z,69.79
2023-05-29T01:47:08.761Z,70.15
2023-05-29T01:49:38.568Z,70.65
2023-05-29T01:52:07.420Z,70.29
2023-05-29T01:54:35.764Z,70.17
2023-05-29T01:57:07.312Z,70.59
2023-05-29T01:59:37.104Z,70.58
2023-05-29T02:02:13.072Z,70.59
2023-05-29T02:04:42.021Z,70.95
2023-05-29T02:07:13.496Z,71.26
2023-05-29T02:09:42.646Z,70.88
2023-05-29T02:12:10.693Z,71.30
2023-05-29T02:14:41.569Z,71.28
2023-05-29T02:17:10.564Z,71.85
2023-05-29T02:19:38.955Z,71.93
2023-05-29T02:22:07.813Z,72.23
2023-05-29T02:24:36.536Z,71.98
2023-05-29T02:27:05.316Z,71.87
2023-05-29T02:29:34.038Z,71.84
2023-05-29T02:32:03.098Z,71.51
2023-05-29T02:34:35.604Z,71.29
2023-05-29T02:37:04.196Z,71.23
2023-05-29T02:39:32.469Z,71.29
2023-05-29T02:42:01.061Z,71.18
2023-05-29T02:44:29.351Z,71.19
2023-05-29T02:46:57.730Z,70.95
2023-05-29T02:49:26.321Z,71.40
2023-05-29T02:51:58.281Z,71.71
2023-05-29T02:54:26.868Z,71.43
2023-05-29T02:56:55.374Z,71.45
2023-05-29T02:59:23.751Z,71.73
2023-05-29T03:01:53.292Z,71.68
2023-05-29T03:04:21.940Z,71.49
2023-05-29T03:06:50.492Z,71.33
2023-05-29T03:09:19.121Z,71.29
2023-05-29T03:11:48.901Z,71.18
2023-05-29T03:14:17.267Z,70.96
2023-05-29T03:16:46.900Z,70.94
2023-05-29T03:19:15.125Z,70.96
2023-05-29T03:21:43.923Z,70.79
2023-05-29T03:24:14.620Z,70.85
2023-05-29T03:26:43.415Z,71.30
2023-05-29T03:29:11.998Z,71.08
2023-05-29T03:31:40.335Z,71.17
2023-05-29T03:34:08.767Z,71.22
2023-05-29T03:36:40.896Z,71.41
2023-05-29T03:39:09.565Z,71.32
2023-05-29T03:41:38.154Z,70.88
2023-05-29T03:44:07.465Z,70.94
2023-05-29T03:46:36.996Z,70.93
2023-05-29T03:49:08.674Z,70.86
2023-05-29T03:51:37.729Z,70.86
2023-05-29T03:54:06.231Z,70.81
2023-05-29T03:56:36.541Z,70.56
2023-05-29T03:59:06.125Z,70.73
2023-05-29T04:01:35.871Z,70.69
2023-05-29T04:04:04.362Z,71.05
2023-05-29T04:06:33.469Z,70.83
2023-05-29T04:09:02.252Z,71.06
2023-05-29T04:11:31.267Z,70.88
2023-05-29T04:13:59.427Z,70.93
2023-05-29T04:16:32.077Z,70.89
2023-05-29T04:19:02.083Z,70.64
2023-05-29T04:21:34.002Z,70.60
2023-05-29T04:24:02.587Z,70.64
2023-05-29T04:26:34.004Z,70.72
2023-05-29T04:29:04.803Z,70.88
2023-05-29T04:31:34.356Z,70.94
2023-05-29T04:34:05.788Z,71.11
2023-05-29T04:36:34.760Z,71.19
2023-05-29T04:39:08.967Z,71.19
2023-05-29T04:41:39.489Z,70.76
2023-05-29T04:44:12.865Z,70.53
2023-05-29T04:46:48.585Z,70.48
2023-05-29T04:49:17.658Z,70.43
2023-05-29T04:51:48.219Z,70.21
2023-05-29T04:54:17.724Z,69.93
2023-05-29T04:56:47.789Z,69.82
2023-05-29T04:59:16.606Z,69.42
2023-05-29T05:01:45.341Z,69.12
2023-05-29T05:04:13.835Z,69.11
2023-05-29T05:06:42.371Z,69.07
2023-05-29T05:09:11.479Z,68.92
2023-05-29T05:11:44.372Z,68.77
2023-05-29T05:14:13.693Z,68.51
2023-05-29T05:16:42.617Z,68.18
2023-05-29T05:19:12.481Z,67.73
2023-05-29T05:21:42.023Z,67.56
2023-05-29T05:24:10.480Z,67.37
2023-05-29T05:26:41.554Z,67.12
2023-05-29T05:29:09.912Z,66.86
2023-05-29T05:31:39.478Z,66.54
2023-05-29T05:34:08.008Z,66.32
2023-05-29T05:36:38.038Z,66.01
2023-05-29T05:39:11.013Z,65.86
2023-05-29T05:41:39.716Z,65.67
2023-05-29T05:44:08.311Z,65.40
2023-05-29T05:46:46.310Z,65.03
2023-05-29T05:49:14.698Z,64.71
2023-05-29T05:51:45.968Z,64.63
2023-05-29T05:54:14.225Z,64.56
2023-05-29T05:56:48.652Z,63.97
2023-05-29T05:59:17.137Z,63.88
2023-05-29T06:01:45.648Z,63.58
2023-05-29T06:04:15.968Z,63.40
2023-05-29T06:06:47.908Z,63.38
2023-05-29T06:09:16.183Z,62.78
2023-05-29T06:11:46.427Z,62.34
2023-05-29T06:14:15.798Z,61.29
2023-05-29T06:16:44.770Z,61.34
2023-05-29T06:19:13.631Z,61.23
2023-05-29T06:21:59.712Z,60.85
2023-05-29T06:24:29.234Z,61.12
2023-05-29T06:26:58.159Z,60.96
2023-05-29T06:29:27.335Z,60.35
2023-05-29T06:31:55.745Z,59.82
2023-05-29T06:34:24.395Z,59.62
2023-05-29T06:36:52.657Z,59.54
2023-05-29T06:39:25.952Z,59.47
2023-05-29T06:41:57.336Z,59.01
2023-05-29T06:44:25.773Z,59.13
2023-05-29T06:46:56.793Z,58.76
2023-05-29T06:49:25.380Z,58.93
2023-05-29T06:51:54.344Z,59.21
2023-05-29T06:54:27.129Z,59.20
2023-05-29T06:57:09.850Z,59.14
2023-05-29T06:59:39.884Z,58.79
2023-05-29T07:02:08.589Z,57.86
2023-05-29T07:04:37.174Z,57.70
2023-05-29T07:07:06.861Z,57.68
2023-05-29T07:09:36.259Z,57.32
2023-05-29T07:12:05.362Z,56.85
2023-05-29T07:14:33.755Z,56.56
2023-05-29T07:17:03.295Z,56.02
2023-05-29T07:19:33.683Z,55.53
2023-05-29T07:22:03.101Z,55.49
2023-05-29T07:24:31.380Z,54.97
2023-05-29T07:26:59.665Z,55.34
2023-05-29T07:29:28.879Z,54.10
2023-05-29T07:31:57.200Z,53.66
2023-05-29T07:34:25.536Z,53.73
2023-05-29T07:37:03.786Z,53.82
2023-05-29T07:39:35.095Z,53.49
2023-05-29T07:42:07.848Z,53.27
2023-05-29T07:44:37.506Z,53.39
2023-05-29T07:47:06.916Z,53.18
2023-05-29T07:49:42.649Z,52.76
2023-05-29T07:52:12.677Z,52.38
2023-05-29T07:54:41.075Z,52.67
2023-05-29T07:57:11.047Z,52.82
2023-05-29T07:59:44.314Z,51.84
2023-05-29T08:02:13.377Z,51.90
2023-05-29T08:05:01.052Z,51.35
2023-05-29T08:07:30.190Z,51.51
2023-05-29T08:09:59.187Z,51.10
2023-05-29T08:12:27.814Z,50.48
2023-05-29T08:14:58.830Z,49.83
2023-05-29T08:17:27.440Z,48.02
2023-05-29T08:19:55.833Z,48.17
2023-05-29T08:22:29.702Z,47.33
2023-05-29T08:24:58.008Z,46.15
2023-05-29T08:27:26.798Z,46.23
2023-05-29T08:29:56.633Z,46.43
2023-05-29T08:32:25.017Z,46.37
2023-05-29T08:34:53.383Z,46.12
2023-05-29T08:37:22.014Z,45.64
2023-05-29T08:39:50.256Z,45.25
2023-05-29T08:42:35.058Z,44.68
2023-05-29T08:45:05.727Z,44.59
2023-05-29T08:47:35.202Z,45.35
2023-05-29T08:50:04.297Z,45.06
2023-05-29T08:52:39.309Z,42.31
2023-05-29T08:55:08.546Z,41.18
2023-05-29T08:57:39.151Z,40.65
2023-05-29T09:00:13.362Z,41.78
2023-05-29T09:02:41.973Z,41.22
2023-05-29T09:05:11.396Z,40.24
2023-05-29T09:07:43.896Z,39.67
2023-05-29T09:10:17.083Z,39.96
2023-05-29T09:12:47.963Z,38.93
2023-05-29T09:15:21.469Z,37.35
2023-05-29T09:17:56.996Z,38.89
2023-05-29T09:20:26.216Z,38.91
2023-05-29T09:22:57.161Z,38.44
2023-05-29T09:25:28.409Z,36.69
2023-05-29T09:28:02.042Z,36.26
2023-05-29T09:30:48.357Z,36.78
2023-05-29T09:33:17.949Z,36.40
2023-05-29T09:35:48.452Z,36.44
2023-05-29T09:40:54.024Z,34.19
2023-05-29T09:43:25.076Z,32.99
2023-05-29T09:45:53.447Z,32.95
2023-05-29T09:48:25.507Z,31.23
2023-05-29T09:50:55.125Z,31.68
2023-05-29T09:53:26.598Z,32.00
2023-05-29T09:55:57.353Z,32.10
2023-05-29T09:58:26.638Z,31.03
2023-05-29T10:00:55.164Z,30.47
2023-05-29T10:03:25.687Z,30.99
2023-05-29T10:05:59.783Z,30.30
2023-05-29T10:08:30.760Z,28.81
2023-05-29T10:11:05.533Z,28.06
2023-05-29T10:13:39.561Z,28.61
2023-05-29T10:16:12.281Z,27.54
2023-05-29T10:18:44.564Z,26.67
2023-05-29T10:21:15.263Z,26.35
2023-05-29T10:23:48.803Z,26.36
2023-05-29T10:26:22.644Z,26.63
2023-05-29T10:29:12.551Z,25.23
2023-05-29T10:32:05.585Z,23.51
2023-05-29T10:34:45.429Z,24.37
2023-05-29T10:37:39.004Z,24.86
2023-05-29T10:40:14.154Z,25.02
2023-05-29T10:42:51.289Z,25.15
2023-05-29T10:45:37.308Z,24.77
2023-05-29T10:48:08.665Z,24.04
2023-05-29T10:50:38.266Z,23.26
2023-05-29T10:53:23.955Z,22.73
2023-05-29T10:55:53.084Z,23.35
2023-05-29T10:58:27.098Z,23.92
2023-05-29T11:00:57.742Z,23.48
2023-05-29T11:03:31.939Z,23.87
2023-05-29T11:06:07.412Z,22.93
2023-05-29T11:08:37.188Z,21.90
2023-05-29T11:11:07.924Z,22.41
2023-05-29T11:13:37.801Z,22.00
2023-05-29T11:16:18.909Z,20.73
2023-05-29T11:18:53.140Z,21.05
2023-05-29T11:21:40.191Z,20.90
2023-05-29T11:24:08.737Z,21.26
2023-05-29T11:26:39.081Z,21.67
2023-05-29T11:29:11.953Z,20.95
2023-05-29T11:31:41.951Z,20.51
2023-05-29T11:34:15.187Z,18.74
2023-05-29T11:36:44.718Z,19.18
2023-05-29T11:39:13.583Z,19.68
2023-05-29T11:41:42.118Z,19.47
2023-05-29T11:44:14.723Z,19.90
2023-05-29T11:46:43.627Z,20.61
2023-05-29T11:49:12.283Z,21.39
2023-05-29T11:51:43.328Z,22.31
2023-05-29T11:54:13.298Z,22.67
2023-05-29T11:56:42.263Z,22.94
2023-05-29T11:59:12.651Z,22.95
2023-05-29T12:01:41.190Z,22.99
2023-05-29T12:04:17.058Z,23.47
2023-05-29T12:06:45.951Z,24.23
2023-05-29T12:09:28.179Z,24.89
2023-05-29T12:12:07.064Z,25.82
2023-05-29T12:14:35.443Z,25.22
2023-05-29T12:17:04.779Z,24.78
2023-05-29T12:19:33.220Z,23.72
2023-05-29T12:22:01.748Z,22.54
2023-05-29T12:24:41.808Z,22.45
2023-05-29T12:27:11.189Z,22.11
2023-05-29T12:29:41.108Z,20.28
2023-05-29T12:32:13.075Z,19.80
2023-05-29T12:34:43.072Z,18.71
2023-05-29T12:37:15.348Z,18.35
2023-05-29T12:39:43.663Z,18.59
2023-05-29T12:42:13.228Z,18.60
2023-05-29T12:44:43.386Z,18.26
2023-05-29T12:47:15.302Z,17.68
2023-05-29T12:49:43.947Z,18.57
2023-05-29T12:52:12.987Z,18.44
2023-05-29T12:54:41.348Z,17.20
2023-05-29T12:57:09.719Z,17.03
2023-05-29T12:59:38.094Z,16.39
2023-05-29T13:02:09.190Z,16.24
2023-05-29T13:04:37.623Z,15.80
2023-05-29T13:07:06.669Z,15.50
2023-05-29T13:09:35.132Z,15.81
2023-05-29T13:12:06.921Z,16.90
2023-05-29T13:14:35.392Z,17.95
2023-05-29T13:17:03.786Z,18.97
2023-05-29T13:19:32.028Z,19.69
2023-05-29T13:22:00.422Z,20.40
2023-05-29T13:24:28.797Z,20.91
2023-05-29T13:26:57.107Z,20.58
2023-05-29T13:29:25.281Z,19.40
2023-05-29T13:31:54.078Z,18.68
2023-05-29T13:34:24.930Z,17.84
2023-05-29T13:36:53.278Z,17.99
2023-05-29T13:39:21.488Z,17.17
2023-05-29T13:41:49.845Z,16.25
2023-05-29T13:44:18.532Z,16.59
2023-05-29T13:46:46.704Z,16.76
2023-05-29T13:49:14.994Z,16.55
2023-05-29T13:51:43.180Z,16.19
2023-05-29T13:54:14.419Z,15.92
2023-05-29T13:56:47.758Z,15.71
2023-05-29T13:59:18.833Z,16.40
2023-05-29T14:01:49.668Z,16.26
2023-05-29T14:04:18.071Z,15.98
2023-05-29T14:06:46.944Z,15.31
2023-05-29T14:09:15.548Z,13.49
2023-05-29T14:11:43.964Z,14.38
2023-05-29T14:14:12.343Z,14.52
2023-05-29T14:16:40.832Z,15.03
2023-05-29T14:19:09.731Z,14.50
2023-05-29T14:21:38.219Z,14.62
2023-05-29T14:24:06.859Z,14.71
2023-05-29T14:26:35.104Z,14.40
2023-05-29T14:29:13.407Z,14.30
2023-05-29T14:31:44.921Z,14.83
2023-05-29T14:34:14.023Z,14.51
2023-05-29T14:36:45.912Z,14.60
2023-05-29T14:39:14.337Z,14.84
2023-05-29T14:41:42.584Z,14.83
2023-05-29T14:44:12.917Z,14.89
2023-05-29T14:46:43.501Z,14.66
2023-05-29T14:49:12.242Z,13.96
2023-05-29T14:51:40.728Z,13.67
2023-05-29T14:54:10.527Z,13.78
2023-05-29T14:56:40.924Z,13.32
2023-05-29T14:59:09.466Z,12.72
2023-05-29T15:01:37.747Z,13.43
2023-05-29T15:04:07.102Z,13.71
2023-05-29T15:06:37.471Z,13.85
2023-05-29T15:09:05.976Z,13.81
2023-05-29T15:11:34.356Z,13.74
2023-05-29T15:14:02.741Z,13.96
2023-05-29T15:16:31.047Z,13.21
2023-05-29T15:18:59.389Z,13.02
2023-05-29T15:21:27.893Z,12.90
2023-05-29T15:23:56.175Z,13.44
2023-05-29T15:26:25.081Z,13.24
2023-05-29T15:28:55.623Z,13.20
2023-05-29T15:31:24.051Z,13.64
2023-05-29T15:33:54.363Z,13.52
2023-05-29T15:36:22.654Z,13.71
2023-05-29T15:38:51.633Z,13.94
2023-05-29T15:41:21.144Z,13.80
2023-05-29T15:43:49.496Z,13.48
2023-05-29T15:46:17.726Z,13.92
2023-05-29T15:48:45.980Z,13.68
2023-05-29T15:51:14.652Z,14.45
2023-05-29T15:53:42.928Z,14.64
2023-05-29T15:56:11.438Z,15.44
2023-05-29T15:58:39.698Z,15.82
2023-05-29T16:01:08.082Z,16.12
2023-05-29T16:03:36.512Z,16.78
2023-05-29T16:06:05.101Z,16.49
2023-05-29T16:08:33.448Z,16.43
2023-05-29T16:11:02.602Z,16.49
2023-05-29T16:13:36.362Z,16.27
2023-05-29T16:16:04.606Z,16.24
2023-05-29T16:18:33.093Z,16.70
2023-05-29T16:21:04.196Z,17.11
2023-05-29T16:23:33.369Z,17.66
2023-05-29T16:26:02.345Z,18.72
2023-05-29T16:28:30.662Z,20.06
2023-05-29T16:30:59.759Z,20.17
2023-05-29T16:33:28.089Z,20.22
2023-05-29T16:35:56.695Z,21.06
2023-05-29T16:38:25.149Z,21.32
2023-05-29T16:40:53.396Z,22.25
2023-05-29T16:43:22.577Z,21.96
2023-05-29T16:45:51.825Z,22.51
2023-05-29T16:48:20.500Z,23.02
2023-05-29T16:50:49.100Z,23.07
2023-05-29T16:53:17.417Z,23.70
2023-05-29T16:55:46.570Z,24.71
2023-05-29T16:58:15.263Z,26.25
2023-05-29T17:00:45.220Z,27.03
2023-05-29T17:03:14.740Z,27.71
2023-05-29T17:05:43.174Z,28.42
2023-05-29T17:08:12.101Z,29.46
2023-05-29T17:10:41.607Z,30.18
2023-05-29T17:13:09.964Z,30.67
2023-05-29T17:15:38.250Z,31.46
2023-05-29T17:18:07.176Z,31.81
2023-05-29T17:20:36.893Z,31.98
2023-05-29T17:23:05.785Z,32.99
2023-05-29T17:25:33.967Z,33.14
2023-05-29T17:28:02.352Z,33.80
2023-05-29T17:30:33.276Z,33.88
2023-05-29T17:33:04.212Z,34.50
2023-05-29T17:35:34.562Z,34.90
2023-05-29T17:38:03.323Z,34.95
2023-05-29T17:40:32.129Z,35.44
2023-05-29T17:43:00.518Z,35.81
2023-05-29T17:45:28.993Z,35.95
2023-05-29T17:47:58.345Z,36.71
2023-05-29T17:50:27.094Z,36.85
2023-05-29T17:52:56.290Z,37.05
2023-05-29T17:55:25.390Z,37.26
2023-05-29T17:57:53.883Z,38.04
2023-05-29T18:00:22.199Z,38.28
2023-05-29T18:02:50.709Z,38.54
2023-05-29T18:05:19.068Z,38.71
2023-05-29T18:07:48.531Z,39.09
2023-05-29T18:10:22.072Z,39.22
2023-05-29T18:12:54.422Z,39.37
2023-05-29T18:15:24.140Z,39.32
2023-05-29T18:17:52.940Z,39.74
2023-05-29T18:20:21.878Z,39.92
2023-05-29T18:22:49.991Z,40.22
2023-05-29T18:25:18.721Z,40.40
2023-05-29T18:27:47.955Z,40.77
2023-05-29T18:30:16.697Z,40.84
2023-05-29T18:32:45.101Z,41.31
2023-05-29T18:35:14.902Z,41.29
2023-05-29T18:37:43.178Z,41.69
2023-05-29T18:40:12.661Z,41.87
2023-05-29T18:42:41.728Z,42.20
2023-05-29T18:45:10.761Z,42.66
2023-05-29T18:47:39.606Z,42.78
2023-05-29T18:50:08.271Z,43.24
2023-05-29T18:52:36.548Z,43.44
2023-05-29T18:55:05.168Z,43.89
2023-05-29T18:57:33.522Z,44.70
2023-05-29T19:00:01.804Z,45.31
2023-05-29T19:02:30.215Z,45.55
2023-05-29T19:04:59.734Z,45.71
2023-05-29T19:07:28.409Z,45.88
2023-05-29T19:09:56.678Z,46.01
2023-05-29T19:12:25.064Z,45.88
2023-05-29T19:14:53.286Z,46.20
2023-05-29T19:17:21.938Z,46.67
2023-05-29T19:19:50.697Z,46.72
2023-05-29T19:22:19.051Z,46.60
2023-05-29T19:24:48.774Z,47.44
2023-05-29T19:27:17.116Z,47.96
2023-05-29T19:29:46.237Z,48.04
2023-05-29T19:32:19.099Z,48.18
2023-05-29T19:34:48.465Z,48.95
2023-05-29T19:37:17.204Z,49.17
2023-05-29T19:39:46.814Z,49.09
2023-05-29T19:42:15.923Z,49.58
2023-05-29T19:44:44.293Z,50.22
2023-05-29T19:47:12.770Z,50.69
2023-05-29T19:49:41.885Z,50.96
2023-05-29T19:52:10.667Z,51.07
2023-05-29T19:54:39.100Z,51.40
2023-05-29T19:57:08.762Z,51.53
2023-05-29T19:59:38.080Z,51.63
2023-05-29T20:02:07.080Z,51.79
2023-05-29T20:04:36.798Z,51.88
2023-05-29T20:07:07.060Z,52.09
2023-05-29T20:09:35.924Z,52.19
2023-05-29T20:12:04.608Z,52.67
2023-05-29T20:14:33.303Z,52.67
2023-05-29T20:17:01.747Z,53.33
2023-05-29T20:19:29.961Z,54.26
2023-05-29T20:21:58.248Z,54.08
2023-05-29T20:24:26.902Z,54.58
2023-05-29T20:26:57.859Z,54.22
2023-05-29T20:29:26.752Z,54.69
2023-05-29T20:31:58.216Z,54.70
2023-05-29T20:34:26.631Z,55.02
2023-05-29T20:36:55.213Z,55.29
2023-05-29T20:39:27.075Z,55.45
2023-05-29T20:41:59.774Z,55.61
2023-05-29T20:44:33.046Z,55.70
2023-05-29T20:47:03.997Z,55.59
2023-05-29T20:49:32.206Z,55.67
2023-05-29T20:52:00.675Z,56.04
2023-05-29T20:54:30.203Z,56.44
2023-05-29T20:56:59.034Z,56.61
2023-05-29T20:59:28.716Z,56.70
2023-05-29T21:01:58.336Z,57.17
2023-05-29T21:04:27.394Z,58.99
2023-05-29T21:06:56.091Z,59.60
2023-05-29T21:09:24.523Z,59.95
2023-05-29T21:11:53.040Z,59.65
2023-05-29T21:14:21.682Z,59.38
2023-05-29T21:16:50.039Z,59.51
2023-05-29T21:19:18.174Z,59.56
2023-05-29T21:21:46.922Z,59.27
2023-05-29T21:24:16.070Z,59.24
2023-05-29T21:26:44.292Z,59.17
2023-05-29T21:29:13.081Z,60.13
2023-05-29T21:31:42.203Z,60.04
2023-05-29T21:34:10.565Z,59.86
2023-05-29T21:36:39.310Z,60.45
2023-05-29T21:39:08.564Z,60.43
2023-05-29T21:41:37.553Z,60.40
2023-05-29T21:44:09.102Z,60.51
2023-05-29T21:46:39.133Z,60.76
2023-05-29T21:49:07.525Z,60.76
2023-05-29T21:51:35.767Z,60.53
2023-05-29T21:54:04.394Z,60.83
2023-05-29T21:56:32.548Z,60.81
2023-05-29T21:59:00.959Z,60.77
2023-05-29T22:01:29.317Z,60.79
2023-05-29T22:03:57.654Z,61.24
2023-05-29T22:06:25.697Z,61.21
2023-05-29T22:08:53.987Z,61.69
2023-05-29T22:11:23.695Z,61.65
2023-05-29T22:13:51.978Z,61.44
2023-05-29T22:16:20.313Z,61.53
2023-05-29T22:19:03.972Z,61.64
2023-05-29T22:21:33.588Z,61.41
2023-05-29T22:24:03.226Z,61.43
2023-05-29T22:26:33.108Z,61.58
2023-05-29T22:29:01.689Z,61.49
2023-05-29T22:31:30.648Z,61.68
2023-05-29T22:33:59.324Z,61.47
2023-05-29T22:36:29.252Z,61.36
2023-05-29T22:38:57.548Z,61.20
2023-05-29T22:41:26.126Z,61.36
2023-05-29T22:43:54.682Z,61.48
2023-05-29T22:46:24.692Z,61.37
2023-05-29T22:48:54.501Z,61.44
2023-05-29T22:51:26.511Z,61.48
2023-05-29T22:53:55.504Z,61.54
2023-05-29T22:56:23.792Z,61.21
2023-05-29T22:58:51.997Z,61.18
2023-05-29T23:01:20.356Z,61.26
2023-05-29T23:03:49.028Z,61.30
2023-05-29T23:06:18.152Z,61.21
2023-05-29T23:08:46.724Z,61.29
2023-05-29T23:11:16.059Z,61.29
2023-05-29T23:13:44.455Z,61.21
2023-05-29T23:16:13.743Z,61.47
2023-05-29T23:18:42.045Z,61.48
2023-05-29T23:21:10.320Z,61.37
2023-05-29T23:23:38.470Z,61.40
2023-05-29T23:26:06.668Z,61.42
2023-05-29T23:28:34.947Z,61.62
2023-05-29T23:31:03.939Z,61.78
2023-05-29T23:33:32.565Z,61.81
2023-05-29T23:36:01.170Z,62.49
2023-05-29T23:38:29.607Z,62.52
2023-05-29T23:40:58.134Z,62.38
2023-05-29T23:43:27.023Z,62.84
2023-05-29T23:45:55.676Z,62.77
2023-05-29T23:48:24.457Z,62.88
2023-05-29T23:50:53.021Z,62.97
2023-05-29T23:53:21.438Z,62.86
2023-05-29T23:55:50.821Z,62.84
2023-05-29T23:58:19.546Z,62.70
